Time;durP1;ratioP1;P1;durP2;ratioP2;P2;SDS_P1;SDS_P2;PMS_P1;PMS_P2;Temp;Humidity;BMP_temperature;BMP_pressure;BME280_temperature;BME280_humidity;BME280_pressure;Samples;Min_cycle;Max_cycle;Signal;HPM_P1;HPM_P2
2023/11/23 00:00:43;;;;;;;14.82;9.05;;;1.70;99.90;;;;;;5049125;28;20233;-62
2023/11/23 00:03:10;;;;;;;11.98;7.60;;;1.80;99.90;;;;;;5049694;28;20206;-63
2023/11/23 00:05:38;;;;;;;10.73;7.85;;;1.80;99.90;;;;;;5049342;28;20700;-62
2023/11/23 00:08:05;;;;;;;9.20;7.82;;;1.90;99.90;;;;;;5049236;28;20209;-62
2023/11/23 00:10:32;;;;;;;9.80;8.57;;;1.90;99.90;;;;;;5050648;28;20866;-63
2023/11/23 00:12:59;;;;;;;10.38;8.07;;;2.00;99.90;;;;;;5051244;28;20202;-63
2023/11/23 00:15:26;;;;;;;9.88;7.95;;;2.00;99.90;;;;;;5051408;28;20214;-62
2023/11/23 00:17:53;;;;;;;8.10;7.30;;;2.00;99.90;;;;;;5050949;28;20289;-62
2023/11/23 00:20:20;;;;;;;9.18;8.27;;;2.10;99.90;;;;;;5051111;28;20297;-63
2023/11/23 00:22:48;;;;;;;10.32;8.55;;;2.10;99.90;;;;;;5051134;28;20297;-62
2023/11/23 00:25:15;;;;;;;9.23;7.95;;;2.10;99.90;;;;;;5050938;28;20207;-63
2023/11/23 00:27:42;;;;;;;12.13;7.72;;;2.10;99.90;;;;;;5050807;28;20228;-62
2023/11/23 00:30:09;;;;;;;11.27;9.13;;;2.10;99.90;;;;;;5051610;28;20591;-62
2023/11/23 00:32:36;;;;;;;10.95;7.78;;;2.10;99.90;;;;;;5051199;28;20291;-63
2023/11/23 00:35:03;;;;;;;9.48;7.53;;;2.10;99.90;;;;;;5052156;28;20213;-62
2023/11/23 00:37:31;;;;;;;12.35;9.23;;;2.00;99.90;;;;;;5054819;28;20203;-62
2023/11/23 00:39:59;;;;;;;9.23;8.40;;;2.10;99.90;;;;;;5054680;28;20210;-62
2023/11/23 00:42:26;;;;;;;12.80;7.60;;;2.00;99.90;;;;;;5054883;28;20230;-62
2023/11/23 00:44:53;;;;;;;8.32;7.20;;;2.10;99.90;;;;;;5054769;28;20672;-62
2023/11/23 00:47:20;;;;;;;8.65;6.78;;;2.10;99.90;;;;;;5053610;28;20294;-62
2023/11/23 00:49:47;;;;;;;7.07;6.40;;;2.10;99.90;;;;;;5054372;28;20599;-63
2023/11/23 00:52:14;;;;;;;9.85;7.65;;;2.10;99.90;;;;;;5054607;28;20224;-62
2023/11/23 00:54:42;;;;;;;7.95;6.57;;;2.10;99.90;;;;;;5054315;28;20206;-62
2023/11/23 00:57:11;;;;;;;9.45;8.38;;;2.10;99.90;;;;;;5054421;28;20304;-62
2023/11/23 00:59:37;;;;;;;7.80;6.97;;;2.10;99.90;;;;;;5054602;28;20213;-62
2023/11/23 01:02:05;;;;;;;9.20;8.30;;;2.10;99.90;;;;;;5053926;28;20610;-62
2023/11/23 01:04:32;;;;;;;10.80;7.13;;;2.10;99.90;;;;;;5053932;28;20646;-62
2023/11/23 01:07:00;;;;;;;10.70;8.48;;;2.10;99.90;;;;;;5053858;28;20203;-62
2023/11/23 01:09:27;;;;;;;11.43;8.73;;;2.10;99.90;;;;;;5054315;28;20218;-63
2023/11/23 01:11:54;;;;;;;8.55;7.45;;;2.10;99.90;;;;;;5053523;28;20222;-62
2023/11/23 01:14:22;;;;;;;13.98;8.25;;;2.00;99.90;;;;;;5053954;28;20694;-62
2023/11/23 01:16:49;;;;;;;10.50;8.80;;;2.00;99.90;;;;;;5053634;28;20260;-62
2023/11/23 01:19:16;;;;;;;7.85;6.93;;;2.00;99.90;;;;;;5053782;28;20238;-62
2023/11/23 01:21:43;;;;;;;8.95;8.02;;;1.90;99.90;;;;;;5053452;28;20731;-62
2023/11/23 01:24:11;;;;;;;9.35;8.48;;;2.00;99.90;;;;;;5053815;28;20298;-63
2023/11/23 01:26:38;;;;;;;8.50;7.70;;;1.90;99.90;;;;;;5053308;28;20565;-63
2023/11/23 01:29:05;;;;;;;8.82;7.53;;;1.90;99.90;;;;;;5053801;28;20206;-62
2023/11/23 01:31:34;;;;;;;10.75;7.90;;;1.80;99.90;;;;;;5053717;28;20222;-62
2023/11/23 01:34:00;;;;;;;12.52;7.78;;;1.80;99.90;;;;;;5053339;28;20627;-62
2023/11/23 01:36:28;;;;;;;9.07;6.93;;;1.80;99.90;;;;;;5052415;28;20297;-63
2023/11/23 01:38:55;;;;;;;7.75;6.95;;;1.80;99.90;;;;;;5052765;28;20786;-62
2023/11/23 01:41:22;;;;;;;10.07;7.97;;;1.80;99.90;;;;;;5053040;28;20420;-62
2023/11/23 01:43:49;;;;;;;9.00;8.00;;;1.70;99.90;;;;;;5053072;28;20206;-62
2023/11/23 01:46:16;;;;;;;7.65;6.45;;;1.70;99.90;;;;;;5052407;28;20203;-63
2023/11/23 01:48:45;;;;;;;12.32;7.55;;;1.70;99.90;;;;;;5052438;28;21213;-62
2023/11/23 01:51:13;;;;;;;6.97;5.68;;;1.70;99.90;;;;;;5051978;28;20215;-62
2023/11/23 01:53:40;;;;;;;7.97;6.65;;;1.60;99.90;;;;;;5052777;28;20233;-62
2023/11/23 01:56:10;;;;;;;11.75;7.75;;;1.50;99.90;;;;;;5052074;28;20587;-62
2023/11/23 01:58:37;;;;;;;8.68;6.78;;;1.50;99.90;;;;;;5052305;28;20206;-62
2023/11/23 02:01:05;;;;;;;9.18;7.38;;;1.40;99.90;;;;;;5051952;28;20238;-62
2023/11/23 02:03:32;;;;;;;10.52;7.72;;;1.30;99.90;;;;;;5052170;28;20298;-62
2023/11/23 02:06:00;;;;;;;6.60;5.28;;;1.30;99.90;;;;;;5052222;28;20210;-62
2023/11/23 02:08:27;;;;;;;6.35;5.70;;;1.20;99.90;;;;;;5052221;28;20202;-62
2023/11/23 02:10:54;;;;;;;6.75;5.68;;;1.20;99.90;;;;;;5051782;28;20254;-62
2023/11/23 02:13:21;;;;;;;8.10;6.88;;;1.10;99.90;;;;;;5051939;28;20201;-62
2023/11/23 02:15:48;;;;;;;10.25;7.00;;;1.10;99.90;;;;;;5051896;28;20216;-61
2023/11/23 02:18:14;;;;;;;6.63;6.03;;;1.00;99.90;;;;;;5051552;28;20212;-62
2023/11/23 02:20:43;;;;;;;9.68;6.30;;;1.00;99.90;;;;;;5051920;28;20233;-61
2023/11/23 02:23:11;;;;;;;8.02;6.50;;;0.90;99.90;;;;;;5051875;28;20359;-62
2023/11/23 02:25:40;;;;;;;7.82;5.60;;;0.90;99.90;;;;;;5051575;28;20207;-62
2023/11/23 02:28:08;;;;;;;6.97;6.28;;;0.90;99.90;;;;;;5051569;28;20305;-62
2023/11/23 02:30:35;;;;;;;9.15;6.40;;;0.80;99.90;;;;;;5051443;28;20769;-62
2023/11/23 02:33:03;;;;;;;7.57;6.07;;;0.80;99.90;;;;;;5051783;28;20213;-62
2023/11/23 02:35:30;;;;;;;6.95;6.13;;;0.70;99.90;;;;;;5051641;28;20217;-62
2023/11/23 02:37:56;;;;;;;7.80;5.32;;;0.70;99.90;;;;;;5051564;28;20703;-62
2023/11/23 02:40:23;;;;;;;6.40;5.80;;;0.70;99.90;;;;;;5051477;28;20210;-62
2023/11/23 02:42:51;;;;;;;7.32;5.78;;;0.70;99.90;;;;;;5051573;28;20802;-62
2023/11/23 02:45:18;;;;;;;6.68;5.88;;;0.60;99.90;;;;;;5051387;28;20208;-62
2023/11/23 02:47:45;;;;;;;6.38;5.60;;;0.60;99.90;;;;;;5050747;28;20297;-60
2023/11/23 02:50:12;;;;;;;6.65;5.90;;;0.60;99.90;;;;;;5050540;28;20206;-62
2023/11/23 02:52:39;;;;;;;6.90;6.38;;;0.50;99.90;;;;;;5051389;28;20199;-62
2023/11/23 02:55:07;;;;;;;6.97;6.22;;;0.50;99.90;;;;;;5051395;28;20563;-62
2023/11/23 02:57:34;;;;;;;7.90;6.45;;;0.50;99.90;;;;;;5050561;28;20210;-61
2023/11/23 03:00:04;;;;;;;8.25;6.78;;;0.50;99.90;;;;;;5051190;28;20210;-62
2023/11/23 03:02:31;;;;;;;6.45;5.90;;;0.50;99.90;;;;;;5050989;28;20288;-62
2023/11/23 03:04:57;;;;;;;9.13;8.25;;;0.40;99.90;;;;;;5051299;28;20202;-62
2023/11/23 03:07:24;;;;;;;6.07;5.40;;;0.40;99.90;;;;;;5050696;28;20708;-62
2023/11/23 03:09:51;;;;;;;8.57;6.43;;;0.40;99.90;;;;;;5051298;28;20212;-62
2023/11/23 03:12:18;;;;;;;7.55;6.32;;;0.40;99.90;;;;;;5051060;28;20733;-61
2023/11/23 03:14:45;;;;;;;7.88;7.03;;;0.40;99.90;;;;;;5051215;28;20212;-62
2023/11/23 03:17:13;;;;;;;7.10;6.18;;;0.40;99.90;;;;;;5050740;28;20691;-62
2023/11/23 03:19:40;;;;;;;7.28;6.32;;;0.40;99.90;;;;;;5051027;28;20210;-62
2023/11/23 03:22:09;;;;;;;7.40;6.65;;;0.40;99.90;;;;;;5050493;28;20265;-62
2023/11/23 03:24:36;;;;;;;7.35;6.65;;;0.40;99.90;;;;;;5050962;28;20297;-62
2023/11/23 03:27:03;;;;;;;7.07;6.15;;;0.40;99.90;;;;;;5050501;28;20592;-62
2023/11/23 03:29:30;;;;;;;8.73;7.65;;;0.40;99.90;;;;;;5051052;28;20202;-62
2023/11/23 03:31:57;;;;;;;7.97;6.50;;;0.40;99.90;;;;;;5050788;28;20225;-62
2023/11/23 03:34:25;;;;;;;7.13;5.65;;;0.40;99.90;;;;;;5051069;28;20217;-62
2023/11/23 03:36:52;;;;;;;6.95;6.25;;;0.40;99.90;;;;;;5050459;28;20209;-62
2023/11/23 03:39:19;;;;;;;9.38;7.35;;;0.40;99.90;;;;;;5050765;28;20206;-61
2023/11/23 03:41:47;;;;;;;7.50;5.95;;;0.40;99.90;;;;;;5050879;28;20249;-62
2023/11/23 03:44:14;;;;;;;8.13;6.30;;;0.40;99.90;;;;;;5051005;28;20211;-62
2023/11/23 03:46:41;;;;;;;5.82;5.32;;;0.40;99.90;;;;;;5050349;28;20298;-62
2023/11/23 03:49:08;;;;;;;6.82;5.55;;;0.40;99.90;;;;;;5050736;28;20288;-62
2023/11/23 03:51:37;;;;;;;7.88;7.15;;;0.40;99.90;;;;;;5050628;28;20325;-62
2023/11/23 03:54:04;;;;;;;7.38;6.68;;;0.30;99.90;;;;;;5050489;28;20593;-62
2023/11/23 03:56:31;;;;;;;6.70;6.10;;;0.30;99.90;;;;;;5050495;28;20792;-62
2023/11/23 03:58:58;;;;;;;10.48;6.55;;;0.30;99.90;;;;;;5050563;28;20301;-62
2023/11/23 04:01:24;;;;;;;8.73;7.18;;;0.30;99.90;;;;;;5050363;28;20230;-63
2023/11/23 04:03:51;;;;;;;7.85;7.07;;;0.30;99.90;;;;;;5050738;28;20210;-62
2023/11/23 04:06:18;;;;;;;10.70;7.25;;;0.30;99.90;;;;;;5050182;28;20276;-62
2023/11/23 04:08:47;;;;;;;9.60;7.03;;;0.40;99.90;;;;;;5050534;28;20636;-62
2023/11/23 04:11:14;;;;;;;8.57;7.00;;;0.40;99.90;;;;;;5053772;28;20231;-62
2023/11/23 04:13:41;;;;;;;7.88;7.18;;;0.40;99.90;;;;;;5053606;28;20206;-62
2023/11/23 04:16:09;;;;;;;11.73;7.97;;;0.40;99.90;;;;;;5054540;28;20585;-62
2023/11/23 04:18:36;;;;;;;7.38;6.68;;;0.30;99.90;;;;;;5054519;28;20220;-63
2023/11/23 04:21:03;;;;;;;6.93;6.32;;;0.30;99.90;;;;;;5054354;28;20230;-63
2023/11/23 04:23:30;;;;;;;6.88;6.30;;;0.30;99.90;;;;;;5054459;28;20230;-62
2023/11/23 04:25:58;;;;;;;8.95;5.65;;;0.30;99.90;;;;;;5054543;28;20206;-62
2023/11/23 04:28:25;;;;;;;8.48;6.35;;;0.30;99.90;;;;;;5054501;28;20298;-63
2023/11/23 04:30:53;;;;;;;8.02;7.20;;;0.20;99.90;;;;;;5054531;28;20674;-62
2023/11/23 04:33:22;;;;;;;6.70;6.10;;;0.20;99.90;;;;;;5054551;28;20207;-62
2023/11/23 04:35:49;;;;;;;7.78;6.32;;;0.20;99.90;;;;;;5054295;28;20218;-62
2023/11/23 04:38:16;;;;;;;9.32;6.68;;;0.20;99.90;;;;;;5054145;28;20217;-62
2023/11/23 04:40:43;;;;;;;7.55;6.75;;;0.20;99.90;;;;;;5054456;28;20233;-62
2023/11/23 04:43:12;;;;;;;12.88;7.07;;;0.10;99.90;;;;;;5054049;28;20712;-62
2023/11/23 04:45:39;;;;;;;6.45;5.85;;;0.20;99.90;;;;;;5054347;28;20210;-63
2023/11/23 04:48:06;;;;;;;9.15;8.10;;;0.20;99.90;;;;;;5053936;28;20684;-62
2023/11/23 04:50:34;;;;;;;8.70;7.80;;;0.20;99.90;;;;;;5053728;28;20237;-62
2023/11/23 04:53:01;;;;;;;8.27;6.28;;;0.10;99.90;;;;;;5054163;28;20580;-62
2023/11/23 04:55:29;;;;;;;8.55;7.03;;;0.20;99.90;;;;;;5053911;28;20206;-62
2023/11/23 04:57:56;;;;;;;16.73;7.90;;;0.20;99.90;;;;;;5053935;28;20202;-63
2023/11/23 05:00:25;;;;;;;11.77;7.25;;;0.10;99.90;;;;;;5053645;28;20301;-62
2023/11/23 05:02:53;;;;;;;8.27;7.50;;;0.20;99.90;;;;;;5053575;28;20226;-62
2023/11/23 05:05:20;;;;;;;9.77;6.30;;;0.20;99.90;;;;;;5053485;28;20206;-62
2023/11/23 05:07:46;;;;;;;6.38;5.70;;;0.20;99.90;;;;;;5053321;28;20302;-62
2023/11/23 05:10:14;;;;;;;8.43;7.30;;;0.20;99.90;;;;;;5053739;28;20216;-62
2023/11/23 05:12:41;;;;;;;7.38;5.95;;;0.20;99.90;;;;;;5053915;28;20202;-62
2023/11/23 05:15:09;;;;;;;6.22;5.70;;;0.20;99.90;;;;;;5053465;28;20208;-62
2023/11/23 05:17:38;;;;;;;8.90;7.45;;;0.20;99.90;;;;;;5053264;28;20210;-62
2023/11/23 05:20:06;;;;;;;10.00;7.70;;;0.20;99.90;;;;;;5053465;28;20297;-62
2023/11/23 05:22:33;;;;;;;8.60;6.75;;;0.20;99.90;;;;;;5052634;28;20287;-62
2023/11/23 05:25:00;;;;;;;7.97;7.15;;;0.20;99.90;;;;;;5053276;28;20211;-62
2023/11/23 05:27:27;;;;;;;9.50;8.60;;;0.30;99.90;;;;;;5052667;28;20206;-62
2023/11/23 05:29:53;;;;;;;8.63;6.85;;;0.30;99.90;;;;;;5052940;28;20214;-62
2023/11/23 05:32:20;;;;;;;8.38;7.57;;;0.30;99.90;;;;;;5052742;28;20233;-62
2023/11/23 05:34:48;;;;;;;7.32;6.57;;;0.40;99.90;;;;;;5053206;28;20760;-62
2023/11/23 05:37:15;;;;;;;9.00;7.25;;;0.40;99.90;;;;;;5052895;28;20217;-62
2023/11/23 05:39:42;;;;;;;8.55;7.65;;;0.50;99.90;;;;;;5053153;28;20278;-62
2023/11/23 05:42:09;;;;;;;9.80;7.03;;;0.50;99.90;;;;;;5052667;28;20233;-62
2023/11/23 05:44:36;;;;;;;10.85;8.43;;;0.60;99.90;;;;;;5052993;28;20276;-62
2023/11/23 05:47:03;;;;;;;7.75;7.05;;;0.70;99.90;;;;;;5052818;28;20293;-62
2023/11/23 05:49:30;;;;;;;9.50;8.15;;;0.70;99.90;;;;;;5053085;28;20256;-62
2023/11/23 05:51:58;;;;;;;10.10;7.30;;;0.80;99.90;;;;;;5084285;22;20237;-63
2023/11/23 05:54:25;;;;;;;8.90;7.65;;;0.90;99.90;;;;;;5072824;28;20235;-63
2023/11/23 05:56:52;;;;;;;10.73;9.60;;;1.00;99.90;;;;;;5072591;28;20212;-63
2023/11/23 05:59:19;;;;;;;12.68;9.13;;;1.10;99.90;;;;;;5072764;28;20216;-63
2023/11/23 06:01:46;;;;;;;13.68;9.18;;;1.20;99.90;;;;;;5072711;28;20739;-63
2023/11/23 06:04:13;;;;;;;11.73;9.25;;;1.30;99.90;;;;;;5072591;28;20225;-63
2023/11/23 06:06:40;;;;;;;11.45;8.68;;;1.40;99.90;;;;;;5072305;28;20688;-63
2023/11/23 06:09:09;;;;;;;10.65;9.65;;;1.40;99.90;;;;;;5072476;28;20209;-63
2023/11/23 06:11:36;;;;;;;13.57;9.10;;;1.50;99.90;;;;;;5072251;28;20316;-64
2023/11/23 06:14:02;;;;;;;11.15;8.25;;;1.60;99.90;;;;;;5072252;28;20213;-63
2023/11/23 06:16:29;;;;;;;12.43;7.90;;;1.70;99.90;;;;;;5071996;28;20237;-63
2023/11/23 06:18:56;;;;;;;10.20;8.57;;;1.80;99.90;;;;;;5072321;28;20208;-63
2023/11/23 06:21:23;;;;;;;8.70;7.75;;;1.80;99.90;;;;;;5072273;28;20718;-63
2023/11/23 06:23:50;;;;;;;15.70;8.95;;;1.90;99.90;;;;;;5072149;28;20599;-64
2023/11/23 06:26:20;;;;;;;8.73;7.93;;;1.90;99.90;;;;;;5072068;28;20208;-64
2023/11/23 06:28:48;;;;;;;10.23;8.55;;;2.00;99.90;;;;;;5072051;28;20210;-63
2023/11/23 06:31:15;;;;;;;8.55;7.60;;;2.00;99.90;;;;;;5072201;28;20324;-63
2023/11/23 06:33:41;;;;;;;9.93;8.10;;;2.00;99.90;;;;;;5071366;28;20213;-63
2023/11/23 06:36:10;;;;;;;9.05;8.15;;;2.00;99.90;;;;;;5071926;28;20205;-63
2023/11/23 06:38:36;;;;;;;8.45;7.72;;;2.00;99.90;;;;;;5071728;28;20252;-64
2023/11/23 06:41:05;;;;;;;9.68;8.48;;;2.00;99.90;;;;;;5070577;28;20212;-64
2023/11/23 06:43:33;;;;;;;7.28;6.55;;;2.00;99.90;;;;;;5071931;28;20226;-63
2023/11/23 06:46:00;;;;;;;10.40;9.35;;;2.00;99.90;;;;;;5071663;28;20288;-64
2023/11/23 06:48:27;;;;;;;15.10;9.43;;;2.10;99.90;;;;;;5071689;28;20640;-64
2023/11/23 06:50:53;;;;;;;12.85;8.52;;;2.10;99.90;;;;;;5071657;28;20741;-64
2023/11/23 06:53:21;;;;;;;9.95;7.43;;;2.10;99.90;;;;;;5071664;28;20289;-64
2023/11/23 06:55:48;;;;;;;9.80;8.32;;;2.20;99.90;;;;;;5071472;28;20213;-64
2023/11/23 06:58:15;;;;;;;12.70;8.65;;;2.20;99.90;;;;;;5071664;28;20680;-64
2023/11/23 07:00:43;;;;;;;20.17;10.45;;;2.30;99.90;;;;;;5071830;28;20209;-63
2023/11/23 07:03:10;;;;;;;11.90;9.60;;;2.30;99.90;;;;;;5071472;28;20229;-64
2023/11/23 07:05:37;;;;;;;7.85;7.15;;;2.40;99.90;;;;;;5071522;28;20213;-63
2023/11/23 07:08:05;;;;;;;11.10;9.10;;;2.50;99.90;;;;;;5071303;28;20593;-64
2023/11/23 07:10:33;;;;;;;12.88;8.63;;;2.50;99.90;;;;;;5071434;28;20297;-64
2023/11/23 07:13:00;;;;;;;9.20;7.93;;;2.50;99.90;;;;;;5071511;28;20221;-64
2023/11/23 07:15:27;;;;;;;9.18;7.50;;;2.60;99.90;;;;;;5071253;28;20210;-64
2023/11/23 07:17:56;;;;;;;10.85;8.63;;;2.60;99.90;;;;;;5071168;28;20693;-64
2023/11/23 07:20:23;;;;;;;11.90;8.77;;;2.60;99.90;;;;;;5071257;28;20206;-63
2023/11/23 07:22:50;;;;;;;9.60;8.60;;;2.70;99.90;;;;;;5071130;28;20230;-62
2023/11/23 07:25:17;;;;;;;12.40;8.40;;;2.70;99.90;;;;;;5071237;28;20297;-64
2023/11/23 07:27:43;;;;;;;10.55;8.23;;;2.80;99.90;;;;;;5071026;28;20206;-64
2023/11/23 07:30:11;;;;;;;15.38;9.45;;;2.80;99.90;;;;;;5071307;28;20208;-64
2023/11/23 07:32:38;;;;;;;13.40;8.52;;;2.90;99.90;;;;;;5071149;28;20230;-64
2023/11/23 07:35:08;;;;;;;10.77;9.32;;;2.90;99.90;;;;;;5071143;28;20292;-64
2023/11/23 07:37:35;;;;;;;10.00;8.80;;;2.90;99.90;;;;;;5070904;28;20217;-64
2023/11/23 07:40:05;;;;;;;17.42;9.30;;;3.00;99.90;;;;;;5071398;28;20213;-64
2023/11/23 07:42:32;;;;;;;10.75;8.80;;;3.00;99.90;;;;;;5071045;28;20229;-64
2023/11/23 07:44:59;;;;;;;9.88;8.27;;;3.00;99.90;;;;;;5073780;28;20239;-64
2023/11/23 07:47:26;;;;;;;9.10;7.50;;;3.00;99.90;;;;;;5074753;28;20627;-64
2023/11/23 07:49:54;;;;;;;9.48;8.57;;;3.10;99.90;;;;;;5075145;28;20300;-64
2023/11/23 07:52:22;;;;;;;13.68;8.35;;;3.10;99.90;;;;;;5074898;28;20279;-64
2023/11/23 07:54:49;;;;;;;11.15;9.00;;;3.10;99.90;;;;;;5075163;28;20212;-63
2023/11/23 07:57:16;;;;;;;9.18;8.18;;;3.20;99.90;;;;;;5074865;28;20209;-64
2023/11/23 07:59:44;;;;;;;12.45;9.27;;;3.20;99.90;;;;;;5075079;28;20205;-63
2023/11/23 08:02:10;;;;;;;12.32;9.88;;;3.20;99.90;;;;;;5074967;28;20255;-64
2023/11/23 08:04:37;;;;;;;12.23;9.10;;;3.30;99.90;;;;;;5074815;28;20236;-64
2023/11/23 08:07:05;;;;;;;10.93;8.65;;;3.30;99.90;;;;;;5074746;28;20292;-64
2023/11/23 08:09:33;;;;;;;10.63;8.95;;;3.30;99.90;;;;;;5074893;28;20206;-63
2023/11/23 08:12:01;;;;;;;11.32;9.63;;;3.30;99.90;;;;;;5074703;28;20312;-64
2023/11/23 08:14:28;;;;;;;11.25;9.02;;;3.20;99.90;;;;;;5074690;28;20271;-63
2023/11/23 08:16:55;;;;;;;12.93;10.35;;;3.20;99.90;;;;;;5074212;28;20216;-64
2023/11/23 08:19:22;;;;;;;9.73;8.25;;;3.30;99.90;;;;;;5073337;28;20562;-64
2023/11/23 08:21:49;;;;;;;12.18;9.75;;;3.30;99.90;;;;;;5073592;28;20229;-63
2023/11/23 08:24:16;;;;;;;11.30;10.15;;;3.30;99.90;;;;;;5073934;28;20596;-64
2023/11/23 08:26:45;;;;;;;11.65;9.02;;;3.40;99.90;;;;;;5073062;28;20202;-63
2023/11/23 08:29:11;;;;;;;10.63;9.30;;;3.40;99.90;;;;;;5073610;28;20215;-64
2023/11/23 08:31:39;;;;;;;10.00;9.15;;;3.40;99.90;;;;;;5072452;28;20585;-64
2023/11/23 08:34:07;;;;;;;8.88;7.97;;;3.50;99.90;;;;;;5074084;28;20198;-63
2023/11/23 08:36:35;;;;;;;13.75;9.75;;;3.60;99.90;;;;;;5071494;28;20209;-63
2023/11/23 08:39:02;;;;;;;10.30;8.90;;;3.60;99.90;;;;;;5073160;28;20263;-64
2023/11/23 08:41:30;;;;;;;14.55;11.35;;;3.70;99.90;;;;;;5074807;28;20581;-64
2023/11/23 08:43:59;;;;;;;11.40;10.20;;;3.80;99.90;;;;;;5073064;28;20225;-63
2023/11/23 08:46:27;;;;;;;13.20;8.63;;;3.80;99.90;;;;;;5074526;28;20207;-64
2023/11/23 08:48:54;;;;;;;7.35;6.65;;;3.90;99.90;;;;;;5073107;28;20737;-63
2023/11/23 08:51:21;;;;;;;11.65;9.00;;;3.90;99.90;;;;;;5079511;28;20240;-63
2023/11/23 08:53:47;;;;;;;10.23;9.23;;;4.00;99.90;;;;;;5073539;28;20209;-63
2023/11/23 08:56:14;;;;;;;10.52;8.23;;;4.10;99.90;;;;;;5075169;28;20244;-63
2023/11/23 08:58:41;;;;;;;11.38;9.13;;;4.10;99.90;;;;;;5072863;28;20198;-64
2023/11/23 09:01:10;;;;;;;8.88;7.93;;;4.10;99.90;;;;;;5079182;28;20210;-63
2023/11/23 09:03:37;;;;;;;9.35;8.45;;;4.10;99.90;;;;;;5073183;28;20316;-63
2023/11/23 09:06:04;;;;;;;9.25;8.32;;;4.10;99.90;;;;;;5075344;28;20205;-63
2023/11/23 09:08:31;;;;;;;7.80;6.70;;;4.20;99.90;;;;;;5072867;28;20830;-63
2023/11/23 09:10:58;;;;;;;10.10;9.10;;;4.20;99.90;;;;;;5072230;28;20223;-63
2023/11/23 09:13:26;;;;;;;10.45;9.35;;;4.20;99.90;;;;;;5072886;28;20208;-63
2023/11/23 09:15:53;;;;;;;9.60;8.60;;;4.30;99.90;;;;;;5075358;28;20205;-63
2023/11/23 09:18:22;;;;;;;9.77;8.15;;;4.30;99.90;;;;;;5072818;28;20798;-63
2023/11/23 09:20:50;;;;;;;11.00;9.88;;;4.30;99.90;;;;;;5072630;28;20216;-64
2023/11/23 09:23:17;;;;;;;10.50;9.52;;;4.30;99.90;;;;;;5072650;28;20252;-64
2023/11/23 09:25:45;;;;;;;11.80;8.23;;;4.30;99.90;;;;;;5071804;28;20210;-63
2023/11/23 09:28:12;;;;;;;8.23;7.45;;;4.30;99.90;;;;;;5072442;28;20675;-64
2023/11/23 09:30:39;;;;;;;10.18;8.60;;;4.30;99.90;;;;;;5070276;28;20197;-64
2023/11/23 09:33:09;;;;;;;10.25;9.00;;;4.40;99.90;;;;;;5072179;28;20226;-64
2023/11/23 09:35:38;;;;;;;8.75;7.95;;;4.40;99.90;;;;;;5072627;28;20197;-64
2023/11/23 09:38:06;;;;;;;9.02;8.07;;;4.40;99.90;;;;;;5071144;28;20206;-64
2023/11/23 09:40:34;;;;;;;16.75;10.35;;;4.40;99.90;;;;;;5074372;28;20328;-64
2023/11/23 09:43:01;;;;;;;8.80;7.15;;;4.50;99.90;;;;;;5071758;28;20238;-62
2023/11/23 09:45:30;;;;;;;8.25;7.28;;;4.50;99.90;;;;;;5073083;28;20217;-64
2023/11/23 09:47:58;;;;;;;10.05;8.10;;;4.60;99.90;;;;;;5071631;28;20590;-64
2023/11/23 09:50:28;;;;;;;9.18;7.88;;;4.60;99.90;;;;;;5072452;28;20289;-64
2023/11/23 09:52:57;;;;;;;9.68;8.20;;;4.70;99.90;;;;;;5071587;28;20253;-63
2023/11/23 09:55:26;;;;;;;11.10;8.77;;;4.70;99.90;;;;;;5071741;28;20293;-64
2023/11/23 09:57:53;;;;;;;9.52;7.60;;;4.80;99.90;;;;;;5071326;28;20215;-64
2023/11/23 10:00:21;;;;;;;11.10;9.02;;;4.90;99.90;;;;;;5071657;28;20228;-63
2023/11/23 10:02:55;;;;;;;9.68;8.30;;;4.90;99.90;;;;;;5071455;28;20268;-63
2023/11/23 10:05:23;;;;;;;9.18;8.27;;;5.00;99.90;;;;;;5071090;28;20235;-64
2023/11/23 10:07:52;;;;;;;8.38;6.90;;;5.00;99.90;;;;;;5071269;28;20212;-63
2023/11/23 10:10:20;;;;;;;11.07;9.60;;;5.10;99.90;;;;;;5069795;28;20202;-62
2023/11/23 10:12:48;;;;;;;8.93;8.10;;;5.20;99.90;;;;;;5070666;28;20618;-63
2023/11/23 10:15:15;;;;;;;8.85;7.78;;;5.20;99.90;;;;;;5070652;28;20198;-64
2023/11/23 10:17:42;;;;;;;7.88;7.18;;;5.20;99.90;;;;;;5066262;28;20202;-63
2023/11/23 10:20:12;;;;;;;8.18;7.07;;;5.20;99.90;;;;;;5071209;28;20233;-63
2023/11/23 10:22:42;;;;;;;9.25;7.85;;;5.10;99.90;;;;;;5071593;28;20248;-64
2023/11/23 10:25:09;;;;;;;8.15;7.35;;;5.10;99.90;;;;;;5070956;28;20235;-63
2023/11/23 10:27:37;;;;;;;6.88;6.28;;;5.00;99.90;;;;;;5070914;28;20210;-63
2023/11/23 10:30:06;;;;;;;9.52;8.52;;;5.00;99.90;;;;;;5070945;28;20206;-63
2023/11/23 10:32:34;;;;;;;8.40;7.25;;;5.00;99.90;;;;;;5070788;28;20233;-63
2023/11/23 10:35:08;;;;;;;8.80;8.02;;;5.00;99.90;;;;;;5070986;28;20218;-64
2023/11/23 10:37:39;;;;;;;9.55;8.07;;;5.00;99.90;;;;;;5070588;28;20869;-63
2023/11/23 10:40:10;;;;;;;8.25;6.72;;;5.00;99.90;;;;;;5070628;28;20212;-64
2023/11/23 10:42:39;;;;;;;8.10;7.10;;;5.00;99.90;;;;;;5070587;28;20226;-63
2023/11/23 10:45:11;;;;;;;9.27;7.15;;;5.00;99.90;;;;;;5070973;28;20597;-62
2023/11/23 10:47:40;;;;;;;8.55;6.72;;;5.10;99.90;;;;;;5069929;28;20240;-62
2023/11/23 10:50:09;;;;;;;8.98;8.07;;;5.10;99.90;;;;;;5070342;28;20292;-63
2023/11/23 10:52:36;;;;;;;11.38;7.80;;;5.20;99.90;;;;;;5070835;28;20229;-63
2023/11/23 10:55:04;;;;;;;6.90;6.30;;;5.30;99.90;;;;;;5070496;28;20202;-64
2023/11/23 10:57:32;;;;;;;9.35;6.50;;;5.40;99.90;;;;;;5070438;28;20206;-64
2023/11/23 11:00:01;;;;;;;10.57;7.43;;;5.50;99.90;;;;;;5070941;28;20202;-64
2023/11/23 11:02:28;;;;;;;9.70;7.05;;;5.50;99.90;;;;;;5071113;28;20235;-64
2023/11/23 11:04:59;;;;;;;7.90;6.43;;;5.50;99.90;;;;;;5071012;28;20232;-63
2023/11/23 11:07:28;;;;;;;9.93;6.85;;;5.60;99.90;;;;;;5070958;28;20217;-64
2023/11/23 11:10:00;;;;;;;9.52;7.97;;;5.60;99.90;;;;;;5069019;28;20578;-64
2023/11/23 11:12:37;;;;;;;6.30;5.78;;;5.60;99.90;;;;;;5070408;28;20676;-64
2023/11/23 11:15:07;;;;;;;8.13;7.43;;;5.70;99.90;;;;;;5069895;28;20201;-64
2023/11/23 11:17:38;;;;;;;9.07;6.15;;;5.80;99.90;;;;;;5069629;28;20735;-64
2023/11/23 11:20:08;;;;;;;7.38;6.72;;;5.70;99.90;;;;;;5069765;28;20243;-63
2023/11/23 11:22:35;;;;;;;8.20;7.40;;;5.80;99.90;;;;;;5070409;28;20253;-64
2023/11/23 11:25:02;;;;;;;7.30;6.60;;;5.90;99.90;;;;;;5070299;28;20221;-64
2023/11/23 11:27:30;;;;;;;6.13;5.63;;;6.00;99.90;;;;;;5069795;28;20259;-64
2023/11/23 11:29:59;;;;;;;6.45;5.88;;;6.00;99.90;;;;;;5070501;28;20205;-63
2023/11/23 11:32:35;;;;;;;7.88;6.53;;;6.00;99.90;;;;;;5070393;28;20647;-64
2023/11/23 11:35:03;;;;;;;5.97;5.47;;;6.00;99.90;;;;;;5070531;28;20712;-64
2023/11/23 11:37:32;;;;;;;8.90;7.50;;;6.10;99.90;;;;;;5070241;28;20202;-64
2023/11/23 11:40:00;;;;;;;8.05;7.40;;;6.10;99.90;;;;;;5070625;28;20205;-63
2023/11/23 11:42:29;;;;;;;9.10;7.28;;;6.10;99.90;;;;;;5070282;28;20480;-64
2023/11/23 11:44:56;;;;;;;6.95;6.30;;;6.10;99.90;;;;;;5070414;28;20224;-64
2023/11/23 11:47:23;;;;;;;6.18;5.50;;;6.10;99.90;;;;;;5069963;28;20656;-63
2023/11/23 11:49:52;;;;;;;7.55;6.50;;;6.20;99.90;;;;;;5070614;28;20210;-64
2023/11/23 11:52:19;;;;;;;7.90;7.05;;;6.30;99.90;;;;;;5069664;28;20616;-64
2023/11/23 11:54:47;;;;;;;7.35;6.75;;;6.50;99.90;;;;;;5068634;28;20216;-64
2023/11/23 11:57:14;;;;;;;8.00;5.75;;;6.60;99.90;;;;;;5070171;28;20244;-64
2023/11/23 11:59:44;;;;;;;6.45;5.43;;;6.60;99.90;;;;;;5070095;28;20197;-65
2023/11/23 12:02:10;;;;;;;10.90;6.28;;;6.70;99.90;;;;;;5070103;28;20275;-64
2023/11/23 12:04:39;;;;;;;6.30;5.40;;;6.90;99.90;;;;;;5069944;28;20225;-64
2023/11/23 12:07:13;;;;;;;7.40;6.53;;;7.00;99.90;;;;;;5069618;28;20205;-63
2023/11/23 12:09:40;;;;;;;7.00;6.15;;;7.10;99.90;;;;;;5054385;28;20208;-64
2023/11/23 12:12:10;;;;;;;6.38;5.38;;;7.20;99.90;;;;;;5069515;28;20223;-64
2023/11/23 12:14:37;;;;;;;7.07;6.47;;;7.20;99.90;;;;;;5070040;28;20202;-64
2023/11/23 12:17:10;;;;;;;10.00;9.15;;;7.30;99.90;;;;;;5070109;28;20201;-63
2023/11/23 12:19:37;;;;;;;5.60;5.07;;;7.30;99.90;;;;;;5053677;28;20198;-64
2023/11/23 12:22:04;;;;;;;6.25;5.47;;;7.40;99.90;;;;;;5070037;28;20227;-64
2023/11/23 12:24:32;;;;;;;6.45;5.07;;;7.40;99.90;;;;;;5070295;28;20225;-64
2023/11/23 12:26:59;;;;;;;6.57;5.97;;;7.30;99.90;;;;;;5069651;28;20216;-64
2023/11/23 12:29:29;;;;;;;6.28;5.65;;;7.40;99.90;;;;;;5070213;28;20206;-64
2023/11/23 12:31:58;;;;;;;6.25;5.57;;;7.40;99.90;;;;;;5071799;28;20226;-64
2023/11/23 12:34:26;;;;;;;8.07;5.43;;;7.40;99.90;;;;;;5073545;28;20673;-64
2023/11/23 12:36:57;;;;;;;5.55;5.05;;;7.50;99.90;;;;;;5073354;28;20208;-64
2023/11/23 12:39:24;;;;;;;7.38;5.55;;;7.40;99.90;;;;;;5073248;28;20206;-64
2023/11/23 12:41:53;;;;;;;7.32;6.63;;;7.40;99.90;;;;;;5072899;28;20234;-64
2023/11/23 12:44:20;;;;;;;5.20;4.80;;;7.40;99.90;;;;;;5072659;28;20320;-64
2023/11/23 12:46:47;;;;;;;6.68;5.90;;;7.50;99.90;;;;;;5073094;28;20304;-64
2023/11/23 12:49:14;;;;;;;5.65;5.13;;;7.50;99.90;;;;;;5073246;28;20295;-64
2023/11/23 12:51:41;;;;;;;7.65;5.72;;;7.60;99.90;;;;;;5073244;28;20225;-63
2023/11/23 12:54:08;;;;;;;5.10;4.65;;;7.60;99.90;;;;;;5073189;28;20297;-63